Time;durP1;ratioP1;P1;durP2;ratioP2;P2;SDS_P1;SDS_P2;PMS_P1;PMS_P2;Temp;Humidity;BMP_temperature;BMP_pressure;BME280_temperature;BME280_humidity;BME280_pressure;Samples;Min_cycle;Max_cycle;Signal;HPM_P1;HPM_P2
2023/06/14 00:01:45;;;;;;;6.25;1.90;;;19.70;71.70;;;;;;5071411;28;20553;-59
2023/06/14 00:04:18;;;;;;;5.03;2.08;;;19.60;71.70;;;;;;5071846;28;20535;-59
2023/06/14 00:06:45;;;;;;;6.35;2.38;;;19.50;71.80;;;;;;5058299;28;20040;-59
2023/06/14 00:09:17;;;;;;;8.35;2.25;;;19.50;71.90;;;;;;5071311;28;20036;-60
2023/06/14 00:11:43;;;;;;;6.57;2.17;;;19.40;71.80;;;;;;5071607;28;20033;-60
2023/06/14 00:14:09;;;;;;;5.78;1.98;;;19.40;72.00;;;;;;5071013;28;20426;-60
2023/06/14 00:16:35;;;;;;;7.18;2.20;;;19.30;72.30;;;;;;5050620;28;20040;-62
2023/06/14 00:19:04;;;;;;;6.32;2.00;;;19.30;72.50;;;;;;5050955;28;20567;-59
2023/06/14 00:21:30;;;;;;;7.45;2.08;;;19.20;72.80;;;;;;5052845;28;20524;-60
2023/06/14 00:23:57;;;;;;;8.27;2.50;;;19.20;72.40;;;;;;5051528;28;20365;-60
2023/06/14 00:26:23;;;;;;;5.82;2.10;;;19.20;72.30;;;;;;5035384;28;20076;-59
2023/06/14 00:28:49;;;;;;;4.82;2.15;;;19.10;72.40;;;;;;5050204;28;20070;-60
2023/06/14 00:31:15;;;;;;;5.43;1.98;;;19.10;72.60;;;;;;5051128;28;20500;-60
2023/06/14 00:33:40;;;;;;;4.88;2.17;;;19.00;72.60;;;;;;5051192;28;20094;-59
2023/06/14 00:36:06;;;;;;;6.40;2.00;;;19.00;72.60;;;;;;5051182;28;20037;-59
2023/06/14 00:38:32;;;;;;;5.95;2.10;;;18.90;72.60;;;;;;5052247;28;20036;-60
2023/06/14 00:40:57;;;;;;;5.07;2.05;;;18.80;73.00;;;;;;5052807;28;20032;-60
2023/06/14 00:43:23;;;;;;;7.32;1.92;;;18.80;73.20;;;;;;5060399;28;20068;-59
2023/06/14 00:45:49;;;;;;;5.30;2.55;;;18.80;73.40;;;;;;5050825;28;20520;-60
2023/06/14 00:48:15;;;;;;;6.68;1.98;;;18.70;73.60;;;;;;5050136;28;20119;-59
2023/06/14 00:50:41;;;;;;;5.25;1.98;;;18.60;73.60;;;;;;5050227;28;20044;-60
2023/06/14 00:53:07;;;;;;;6.72;2.00;;;18.60;73.70;;;;;;5051179;28;20097;-59
2023/06/14 00:55:33;;;;;;;7.25;2.35;;;18.50;73.60;;;;;;5070804;28;20045;-58
2023/06/14 00:57:59;;;;;;;5.72;2.08;;;18.50;73.70;;;;;;5070873;28;20090;-61
2023/06/14 01:00:25;;;;;;;8.15;2.28;;;18.40;73.90;;;;;;5068952;28;20039;-58
2023/06/14 01:02:51;;;;;;;5.72;1.92;;;18.30;74.00;;;;;;5070568;28;20056;-58
2023/06/14 01:05:17;;;;;;;6.55;2.35;;;18.20;74.20;;;;;;5070610;28;20043;-59
2023/06/14 01:08:15;;;;;;;4.93;1.90;;;18.20;74.40;;;;;;5070235;28;20498;-60
2023/06/14 01:11:04;;;;;;;4.30;1.95;;;18.10;74.80;;;;;;5050775;28;20513;-60
2023/06/14 01:13:35;;;;;;;6.93;2.30;;;18.00;75.00;;;;;;5070428;28;20040;-59
2023/06/14 01:16:02;;;;;;;8.18;2.20;;;18.00;75.00;;;;;;5070474;28;20119;-59
2023/06/14 01:18:32;;;;;;;6.13;2.20;;;18.00;75.00;;;;;;5070420;28;20044;-60
2023/06/14 01:20:58;;;;;;;6.00;2.10;;;17.90;75.30;;;;;;5062058;28;20041;-59
2023/06/14 01:23:24;;;;;;;5.47;1.90;;;17.90;75.40;;;;;;5070243;28;20025;-59
2023/06/14 01:25:53;;;;;;;5.85;2.00;;;17.80;75.70;;;;;;5052030;28;20070;-58
2023/06/14 01:28:20;;;;;;;8.48;2.08;;;17.70;75.80;;;;;;5070613;28;20503;-59
2023/06/14 01:30:53;;;;;;;5.43;2.00;;;17.60;76.40;;;;;;5058940;28;20056;-60
2023/06/14 01:33:23;;;;;;;8.55;2.20;;;17.60;76.80;;;;;;5070024;28;20488;-60
2023/06/14 01:35:52;;;;;;;6.00;1.80;;;17.60;76.80;;;;;;5068769;28;20045;-60
2023/06/14 01:38:21;;;;;;;5.93;2.63;;;17.60;77.10;;;;;;5048561;28;20090;-61
2023/06/14 01:40:48;;;;;;;5.65;1.92;;;17.50;77.00;;;;;;5070239;28;20044;-58
2023/06/14 01:43:15;;;;;;;5.45;1.98;;;17.50;77.10;;;;;;5069793;28;20078;-60
2023/06/14 01:45:47;;;;;;;6.85;2.08;;;17.40;77.30;;;;;;5070220;28;20037;-61
2023/06/14 01:48:14;;;;;;;8.20;1.90;;;17.40;77.80;;;;;;5069755;28;20158;-59
2023/06/14 01:50:40;;;;;;;8.15;2.38;;;17.30;77.80;;;;;;5052281;28;20060;-59
2023/06/14 01:53:10;;;;;;;10.32;2.30;;;17.30;77.80;;;;;;5070210;28;20041;-59
2023/06/14 01:55:37;;;;;;;7.20;2.60;;;17.30;78.00;;;;;;5070192;28;20506;-59
2023/06/14 01:58:03;;;;;;;6.47;2.30;;;17.30;78.10;;;;;;5070267;28;20033;-60
2023/06/14 02:00:29;;;;;;;8.38;2.28;;;17.20;78.30;;;;;;5069806;28;20037;-58
2023/06/14 02:02:55;;;;;;;6.13;2.10;;;17.20;78.70;;;;;;5057001;28;20072;-59
2023/06/14 02:05:21;;;;;;;7.38;1.95;;;17.20;78.80;;;;;;5051097;28;20044;-59
2023/06/14 02:07:47;;;;;;;5.28;1.95;;;17.20;78.90;;;;;;5061541;28;20041;-60
2023/06/14 02:10:14;;;;;;;5.55;2.10;;;17.10;78.90;;;;;;5049862;28;20033;-59
2023/06/14 02:12:40;;;;;;;5.45;2.33;;;17.00;79.20;;;;;;5049733;28;20102;-59
2023/06/14 02:15:06;;;;;;;6.78;2.10;;;17.00;79.40;;;;;;5062529;28;20110;-59
2023/06/14 02:17:33;;;;;;;5.95;2.25;;;16.90;80.20;;;;;;5069724;28;20040;-60
2023/06/14 02:19:59;;;;;;;7.45;2.10;;;16.90;80.00;;;;;;5068007;28;20128;-60
2023/06/14 02:22:25;;;;;;;9.43;2.08;;;16.80;80.00;;;;;;5069578;28;20118;-60
2023/06/14 02:24:50;;;;;;;5.50;2.10;;;16.80;80.30;;;;;;5069766;28;20497;-58
2023/06/14 02:27:16;;;;;;;5.80;2.15;;;16.80;80.40;;;;;;5070057;28;20044;-59
2023/06/14 02:29:42;;;;;;;8.38;1.90;;;16.70;80.70;;;;;;5069648;28;20045;-59
2023/06/14 02:32:08;;;;;;;7.72;2.38;;;16.70;81.00;;;;;;5069992;28;20043;-59
2023/06/14 02:34:34;;;;;;;3.80;1.80;;;16.70;81.20;;;;;;5056569;28;20041;-59
2023/06/14 02:37:02;;;;;;;7.28;2.13;;;16.60;81.40;;;;;;5049329;28;20033;-61
2023/06/14 02:39:28;;;;;;;5.22;2.10;;;16.60;81.80;;;;;;5049698;28;20041;-59
2023/06/14 02:41:54;;;;;;;5.05;2.40;;;16.50;81.80;;;;;;5067867;28;20098;-59
2023/06/14 02:44:25;;;;;;;9.90;2.30;;;16.50;82.10;;;;;;5052794;28;20033;-59
2023/06/14 02:46:51;;;;;;;6.25;2.30;;;16.50;82.40;;;;;;5051878;28;20090;-59
2023/06/14 02:49:16;;;;;;;4.30;2.25;;;16.40;82.60;;;;;;5068108;28;20036;-59
2023/06/14 02:51:42;;;;;;;6.75;2.20;;;16.40;82.80;;;;;;5073222;28;20040;-60
2023/06/14 02:54:08;;;;;;;6.18;1.88;;;16.40;82.90;;;;;;5070698;28;20040;-60
2023/06/14 02:56:33;;;;;;;7.47;2.30;;;16.30;83.20;;;;;;5053054;28;20072;-58
2023/06/14 02:59:00;;;;;;;6.78;2.15;;;16.30;83.30;;;;;;5052973;28;20041;-58
2023/06/14 03:01:34;;;;;;;6.32;2.42;;;16.30;83.50;;;;;;5052790;28;20037;-60
2023/06/14 03:04:03;;;;;;;5.05;2.10;;;16.30;83.70;;;;;;5053045;28;20091;-59
2023/06/14 03:06:30;;;;;;;6.07;2.50;;;16.30;84.00;;;;;;5069625;28;20074;-59
2023/06/14 03:08:59;;;;;;;6.97;2.10;;;16.30;84.20;;;;;;5072650;28;20064;-59
2023/06/14 03:11:26;;;;;;;9.82;2.53;;;16.30;84.50;;;;;;5052436;28;20399;-60
2023/06/14 03:13:53;;;;;;;5.75;2.17;;;16.30;84.60;;;;;;5059485;28;20060;-60
2023/06/14 03:16:20;;;;;;;5.65;2.00;;;16.20;84.90;;;;;;5058072;28;20488;-59
2023/06/14 03:18:46;;;;;;;7.32;2.30;;;16.20;84.90;;;;;;5054248;28;20037;-59
2023/06/14 03:21:11;;;;;;;8.80;2.08;;;16.20;85.00;;;;;;5072751;28;20032;-60
2023/06/14 03:23:37;;;;;;;5.55;2.20;;;16.20;85.30;;;;;;5054732;28;20041;-59
2023/06/14 03:26:03;;;;;;;5.57;2.20;;;16.20;85.50;;;;;;5054618;28;20356;-60
2023/06/14 03:28:28;;;;;;;6.68;2.50;;;16.10;85.80;;;;;;5054472;28;20044;-60
2023/06/14 03:30:54;;;;;;;8.27;2.42;;;16.20;86.00;;;;;;5054304;28;20033;-59
2023/06/14 03:33:20;;;;;;;6.65;2.30;;;16.10;86.10;;;;;;5071129;28;20070;-61
2023/06/14 03:35:46;;;;;;;5.35;2.30;;;16.10;86.10;;;;;;5072350;28;20277;-60
2023/06/14 03:38:12;;;;;;;6.88;2.00;;;16.10;86.50;;;;;;5071900;28;20043;-59
2023/06/14 03:40:38;;;;;;;6.68;2.47;;;16.10;86.50;;;;;;5071559;28;20036;-58
2023/06/14 03:43:03;;;;;;;6.28;2.25;;;16.00;86.70;;;;;;5050699;28;20098;-58
2023/06/14 03:45:29;;;;;;;5.88;2.50;;;16.00;87.00;;;;;;5071831;28;20036;-58
2023/06/14 03:47:56;;;;;;;9.70;2.35;;;16.00;87.30;;;;;;5056647;28;20049;-60
2023/06/14 03:50:22;;;;;;;6.95;2.38;;;16.00;87.40;;;;;;5070668;28;20509;-58
2023/06/14 03:52:48;;;;;;;5.72;2.22;;;16.00;87.60;;;;;;5060952;28;20036;-58
2023/06/14 03:55:16;;;;;;;4.22;2.38;;;16.00;87.60;;;;;;5050489;28;20037;-58
2023/06/14 03:57:41;;;;;;;5.90;2.10;;;16.00;87.90;;;;;;5051881;28;20126;-60
2023/06/14 04:00:09;;;;;;;4.78;2.08;;;16.00;88.00;;;;;;5051887;28;20037;-59
2023/06/14 04:02:36;;;;;;;6.47;2.72;;;16.00;88.10;;;;;;5052663;28;20366;-59
2023/06/14 04:05:03;;;;;;;6.05;2.22;;;16.00;88.00;;;;;;5071755;28;20115;-59
2023/06/14 04:07:28;;;;;;;6.32;2.25;;;16.00;88.30;;;;;;5071526;28;20059;-60
2023/06/14 04:09:55;;;;;;;5.30;2.50;;;16.00;88.40;;;;;;5068930;28;20032;-60
2023/06/14 04:12:21;;;;;;;7.05;2.30;;;16.00;88.50;;;;;;5067434;28;20048;-61
2023/06/14 04:14:46;;;;;;;6.72;2.22;;;16.00;88.60;;;;;;5065290;28;20045;-61
2023/06/14 04:17:12;;;;;;;6.45;2.60;;;16.00;88.80;;;;;;5070837;28;20036;-61
2023/06/14 04:19:38;;;;;;;6.60;2.20;;;16.00;88.90;;;;;;5070547;28;20044;-61
2023/06/14 04:22:04;;;;;;;5.25;2.17;;;16.10;89.10;;;;;;5071474;28;20337;-60
2023/06/14 04:24:31;;;;;;;5.45;2.05;;;16.10;89.10;;;;;;5071040;28;20060;-59
2023/06/14 04:26:58;;;;;;;6.45;2.15;;;16.10;89.30;;;;;;5067570;28;20037;-59
2023/06/14 04:29:26;;;;;;;7.72;2.47;;;16.10;89.40;;;;;;5050960;28;20029;-59
2023/06/14 04:31:54;;;;;;;8.65;2.55;;;16.10;89.40;;;;;;5051326;28;20044;-58
2023/06/14 04:34:21;;;;;;;6.85;2.67;;;16.10;89.50;;;;;;5051025;28;20040;-60
2023/06/14 04:36:52;;;;;;;5.13;2.47;;;16.20;89.50;;;;;;5051064;28;20400;-58
2023/06/14 04:39:22;;;;;;;6.70;2.20;;;16.10;89.70;;;;;;5052513;28;20227;-61
2023/06/14 04:41:52;;;;;;;5.22;2.47;;;16.20;89.80;;;;;;5060754;28;20500;-59
2023/06/14 04:44:19;;;;;;;4.45;2.42;;;16.20;89.90;;;;;;5052650;28;20040;-59
2023/06/14 04:46:46;;;;;;;7.05;2.30;;;16.20;89.90;;;;;;5071098;28;20511;-60
2023/06/14 04:49:20;;;;;;;5.40;2.17;;;16.20;90.00;;;;;;5063584;28;20033;-58
2023/06/14 04:51:46;;;;;;;5.45;2.55;;;16.30;90.10;;;;;;5069870;28;20037;-59
2023/06/14 04:54:15;;;;;;;5.45;2.28;;;16.30;90.10;;;;;;5070511;28;20040;-59
2023/06/14 04:56:44;;;;;;;5.40;2.45;;;16.30;90.10;;;;;;5070968;28;20116;-58
2023/06/14 04:59:14;;;;;;;5.20;2.22;;;16.30;90.20;;;;;;5053227;28;20041;-59
2023/06/14 05:01:41;;;;;;;7.47;2.60;;;16.40;90.20;;;;;;5050542;28;20041;-59
2023/06/14 05:04:06;;;;;;;11.75;2.60;;;16.40;90.20;;;;;;5065418;28;20052;-59
2023/06/14 05:06:32;;;;;;;8.43;2.80;;;16.40;90.20;;;;;;5069735;28;20040;-59
2023/06/14 05:08:58;;;;;;;5.03;2.60;;;16.40;90.20;;;;;;5070821;28;20044;-60
2023/06/14 05:11:24;;;;;;;5.88;2.83;;;16.50;90.30;;;;;;5070046;28;20043;-59
2023/06/14 05:13:51;;;;;;;6.20;2.45;;;16.50;90.20;;;;;;5070819;28;20040;-60
2023/06/14 05:16:19;;;;;;;5.55;2.60;;;16.50;90.30;;;;;;5070411;28;20131;-59
2023/06/14 05:18:45;;;;;;;6.53;2.80;;;16.60;90.50;;;;;;5052068;28;20049;-59
2023/06/14 05:21:11;;;;;;;5.65;2.63;;;16.70;90.30;;;;;;5069788;28;20040;-59
2023/06/14 05:23:37;;;;;;;10.75;2.60;;;16.70;90.30;;;;;;5068920;28;20094;-60
2023/06/14 05:26:04;;;;;;;5.50;2.50;;;16.70;90.30;;;;;;5050848;28;20037;-60
2023/06/14 05:28:30;;;;;;;5.90;2.50;;;16.80;90.30;;;;;;5070715;28;20029;-60
2023/06/14 05:30:56;;;;;;;5.70;2.70;;;16.80;90.20;;;;;;5049812;28;20047;-57
2023/06/14 05:33:22;;;;;;;6.38;2.65;;;16.90;90.20;;;;;;5050240;28;20343;-59
2023/06/14 05:35:47;;;;;;;7.65;2.72;;;16.90;90.20;;;;;;5050665;28;20381;-58
2023/06/14 05:38:13;;;;;;;8.25;2.75;;;17.00;90.20;;;;;;5070092;28;20471;-59
2023/06/14 05:40:39;;;;;;;6.55;2.90;;;17.10;90.10;;;;;;5066033;28;20384;-59
2023/06/14 05:43:04;;;;;;;5.63;2.53;;;17.10;90.10;;;;;;5033513;28;20051;-61
2023/06/14 05:45:30;;;;;;;7.28;2.60;;;17.20;90.00;;;;;;5050499;28;20384;-59
2023/06/14 05:47:56;;;;;;;7.68;2.83;;;17.20;89.90;;;;;;5054214;28;20624;-59
2023/06/14 05:50:21;;;;;;;5.38;2.80;;;17.30;89.60;;;;;;5069189;28;20391;-59
2023/06/14 05:52:47;;;;;;;5.95;2.63;;;17.30;90.00;;;;;;5070200;28;20102;-59
2023/06/14 05:55:13;;;;;;;21.13;5.18;;;17.40;89.60;;;;;;5058790;28;20120;-59
2023/06/14 05:57:39;;;;;;;7.90;2.80;;;17.40;89.50;;;;;;5057534;28;20040;-59
2023/06/14 06:00:10;;;;;;;4.97;2.40;;;17.50;89.10;;;;;;5069326;28;20509;-60
2023/06/14 06:02:36;;;;;;;8.60;3.60;;;17.60;89.00;;;;;;5069559;28;20399;-60
2023/06/14 06:05:02;;;;;;;8.50;2.63;;;17.60;88.90;;;;;;5069755;28;20037;-60
2023/06/14 06:07:28;;;;;;;8.02;2.80;;;17.70;88.90;;;;;;5065434;28;20037;-59
2023/06/14 06:09:53;;;;;;;6.05;2.50;;;17.70;88.70;;;;;;5050260;28;20526;-59
2023/06/14 06:12:19;;;;;;;6.47;2.70;;;17.80;88.70;;;;;;5050204;28;20071;-59
2023/06/14 06:14:45;;;;;;;7.15;2.55;;;17.90;88.40;;;;;;5050043;28;20048;-59
2023/06/14 06:17:10;;;;;;;7.90;2.28;;;17.90;87.80;;;;;;5050792;28;20040;-58
2023/06/14 06:19:36;;;;;;;6.75;2.45;;;18.00;87.60;;;;;;5073570;28;20042;-59
2023/06/14 06:22:04;;;;;;;6.50;2.35;;;18.00;87.70;;;;;;5073537;28;20124;-58
2023/06/14 06:24:30;;;;;;;5.93;2.30;;;18.10;87.90;;;;;;5073497;28;20041;-60
2023/06/14 06:26:56;;;;;;;5.82;2.45;;;18.20;87.40;;;;;;5073638;28;20439;-59
2023/06/14 06:29:21;;;;;;;5.93;2.53;;;18.30;87.10;;;;;;5073775;28;20582;-59
2023/06/14 06:31:47;;;;;;;7.60;2.40;;;18.30;86.70;;;;;;5073155;28;20098;-60
2023/06/14 06:34:13;;;;;;;5.45;2.42;;;18.40;86.70;;;;;;5071591;28;20043;-59
2023/06/14 06:36:38;;;;;;;4.43;2.00;;;18.50;86.60;;;;;;5071476;28;20044;-58
2023/06/14 06:39:09;;;;;;;5.90;2.20;;;18.50;86.40;;;;;;5066447;28;20036;-60
2023/06/14 06:41:37;;;;;;;5.38;2.30;;;18.60;86.40;;;;;;5072938;28;20139;-58
2023/06/14 06:44:03;;;;;;;3.50;1.85;;;18.70;86.20;;;;;;5070538;28;20051;-59
2023/06/14 06:46:29;;;;;;;5.10;2.08;;;18.80;85.80;;;;;;5057514;28;20093;-59
2023/06/14 06:48:54;;;;;;;4.93;2.47;;;18.80;85.50;;;;;;5068480;28;20040;-58
2023/06/14 06:51:20;;;;;;;5.55;2.05;;;18.90;85.00;;;;;;5053134;28;20044;-58
2023/06/14 06:53:55;;;;;;;3.53;1.90;;;19.00;84.80;;;;;;5057749;28;20046;-59
2023/06/14 06:56:23;;;;;;;5.18;1.70;;;19.10;85.20;;;;;;5059985;28;20040;-59
2023/06/14 06:58:49;;;;;;;6.18;2.22;;;19.10;85.00;;;;;;5062557;28;20041;-59
2023/06/14 07:01:16;;;;;;;5.20;2.00;;;19.20;84.40;;;;;;5061223;28;20052;-59
2023/06/14 07:03:41;;;;;;;7.07;2.33;;;19.30;84.30;;;;;;5061637;28;20063;-58
2023/06/14 07:06:07;;;;;;;5.45;1.90;;;19.30;83.90;;;;;;5063245;28;20408;-59
2023/06/14 07:08:33;;;;;;;5.72;2.00;;;19.40;83.70;;;;;;5060938;28;20047;-59
2023/06/14 07:10:59;;;;;;;9.00;2.20;;;19.40;83.50;;;;;;5060165;28;20032;-59
2023/06/14 07:13:24;;;;;;;4.63;2.10;;;19.50;83.30;;;;;;5061899;28;20494;-59
2023/06/14 07:15:53;;;;;;;6.60;2.03;;;19.50;82.80;;;;;;5062527;28;20532;-59
2023/06/14 07:18:18;;;;;;;7.50;2.10;;;19.60;83.10;;;;;;5061571;28;20041;-60
2023/06/14 07:20:44;;;;;;;5.25;1.90;;;19.70;82.90;;;;;;5062467;28;20072;-60
2023/06/14 07:23:10;;;;;;;4.72;1.98;;;19.70;82.60;;;;;;5061186;28;20513;-59
2023/06/14 07:25:36;;;;;;;5.07;1.95;;;19.80;82.20;;;;;;5060639;28;21501;-60
2023/06/14 07:28:02;;;;;;;4.47;1.90;;;19.90;82.50;;;;;;5061279;28;20041;-61
2023/06/14 07:30:29;;;;;;;6.05;2.28;;;19.90;82.00;;;;;;5061388;28;20113;-59
2023/06/14 07:32:55;;;;;;;5.30;2.03;;;20.00;81.30;;;;;;5061193;28;20116;-60
2023/06/14 07:35:21;;;;;;;5.85;1.70;;;20.00;81.30;;;;;;5061404;28;20032;-59
2023/06/14 07:37:47;;;;;;;5.38;1.85;;;20.10;80.90;;;;;;5060231;28;20421;-59
2023/06/14 07:40:13;;;;;;;4.97;2.20;;;20.10;81.10;;;;;;5061697;28;20408;-60
2023/06/14 07:42:39;;;;;;;6.07;1.88;;;20.20;80.80;;;;;;5059725;28;20100;-60
2023/06/14 07:45:06;;;;;;;8.07;2.95;;;20.20;81.00;;;;;;5060481;28;20045;-58
2023/06/14 07:47:32;;;;;;;6.68;2.50;;;20.30;80.80;;;;;;5061624;28;20040;-60
2023/06/14 07:49:58;;;;;;;4.63;1.80;;;20.30;80.60;;;;;;5060014;28;20036;-61
2023/06/14 07:52:24;;;;;;;4.88;2.05;;;20.50;80.80;;;;;;5060421;28;20330;-59
2023/06/14 07:54:50;;;;;;;6.75;2.05;;;20.50;80.90;;;;;;5061122;28;20048;-59
2023/06/14 07:57:16;;;;;;;4.45;1.75;;;20.60;80.70;;;;;;5060123;28;20081;-60
2023/06/14 07:59:42;;;;;;;4.35;2.10;;;20.70;80.00;;;;;;5058232;28;20041;-59
2023/06/14 08:02:07;;;;;;;4.63;1.80;;;20.70;79.90;;;;;;5059733;28;20638;-59
2023/06/14 08:04:33;;;;;;;7.10;1.80;;;20.80;79.80;;;;;;5059392;28;20086;-58
2023/06/14 08:07:00;;;;;;;5.13;1.92;;;20.90;79.80;;;;;;5061177;28;20067;-60
2023/06/14 08:09:27;;;;;;;6.45;1.80;;;21.00;79.50;;;;;;5061439;28;20117;-59
2023/06/14 08:11:53;;;;;;;5.43;2.00;;;21.00;79.10;;;;;;5060308;28;20127;-58
2023/06/14 08:14:19;;;;;;;4.22;1.80;;;21.10;78.70;;;;;;5060508;28;20151;-59
2023/06/14 08:16:44;;;;;;;5.28;1.88;;;21.10;78.50;;;;;;5060677;28;20102;-59
2023/06/14 08:19:10;;;;;;;3.30;1.50;;;21.20;78.20;;;;;;5061754;28;20032;-59
2023/06/14 08:21:36;;;;;;;5.22;1.80;;;21.20;78.20;;;;;;5037518;28;20123;-59
2023/06/14 08:24:02;;;;;;;5.53;1.60;;;21.20;78.20;;;;;;5060721;28;20037;-60
2023/06/14 08:26:31;;;;;;;3.97;1.60;;;21.30;78.10;;;;;;5039277;28;20068;-60
2023/06/14 08:28:57;;;;;;;5.97;1.80;;;21.30;78.50;;;;;;5039550;28;20043;-59
2023/06/14 08:31:24;;;;;;;5.50;1.80;;;21.40;78.30;;;;;;5060650;28;20548;-58
2023/06/14 08:33:50;;;;;;;4.05;1.88;;;21.50;78.40;;;;;;5060113;28;20128;-59
2023/06/14 08:36:16;;;;;;;6.53;2.25;;;21.50;77.90;;;;;;5061140;28;20112;-57
2023/06/14 08:38:41;;;;;;;4.38;1.80;;;21.50;78.00;;;;;;5059736;28;20028;-59
2023/06/14 08:41:10;;;;;;;4.25;2.00;;;21.60;78.00;;;;;;5058998;28;20109;-58
2023/06/14 08:43:36;;;;;;;5.80;2.10;;;21.60;77.90;;;;;;5058661;28;20032;-59
2023/06/14 08:46:04;;;;;;;4.25;1.67;;;21.70;77.40;;;;;;5060327;28;20047;-58
2023/06/14 08:48:34;;;;;;;3.67;1.80;;;21.70;76.90;;;;;;5059807;28;20044;-60
2023/06/14 08:51:03;;;;;;;5.03;1.98;;;21.70;76.70;;;;;;5059451;28;20069;-58
2023/06/14 08:53:33;;;;;;;4.82;1.60;;;21.70;76.30;;;;;;5060143;28;20124;-59
2023/06/14 08:56:01;;;;;;;5.35;1.60;;;21.80;76.10;;;;;;5061224;28;20037;-59
2023/06/14 08:58:31;;;;;;;3.45;1.70;;;21.90;75.30;;;;;;5049581;28;20059;-60
2023/06/14 09:00:58;;;;;;;4.03;1.50;;;22.00;75.00;;;;;;5067352;28;20484;-58
2023/06/14 09:03:29;;;;;;;4.07;1.38;;;22.00;74.20;;;;;;5066562;28;20060;-59
2023/06/14 09:06:03;;;;;;;5.57;1.70;;;22.10;73.70;;;;;;5058575;28;20037;-59
2023/06/14 09:08:30;;;;;;;6.93;1.60;;;22.20;73.70;;;;;;5050522;28;20040;-59
2023/06/14 09:10:57;;;;;;;3.92;1.60;;;22.30;73.60;;;;;;5054880;28;20466;-60
2023/06/14 09:13:22;;;;;;;5.15;1.52;;;22.40;73.30;;;;;;5050847;28;20083;-59
2023/06/14 09:15:48;;;;;;;4.30;1.50;;;22.50;72.60;;;;;;5050783;28;20068;-59
2023/06/14 09:18:14;;;;;;;4.15;1.55;;;22.70;72.70;;;;;;5051816;28;20051;-59
2023/06/14 09:20:40;;;;;;;3.92;1.58;;;22.80;72.40;;;;;;5057370;28;20541;-60
2023/06/14 09:23:06;;;;;;;6.57;1.95;;;22.90;71.90;;;;;;5050587;28;20123;-60
2023/06/14 09:25:41;;;;;;;6.97;1.67;;;23.00;71.30;;;;;;5058281;28;20087;-60
2023/06/14 09:28:08;;;;;;;3.13;1.50;;;23.10;71.30;;;;;;5051607;28;20028;-59
2023/06/14 09:30:33;;;;;;;4.90;1.60;;;23.30;71.70;;;;;;5070345;28;20442;-59
2023/06/14 09:32:59;;;;;;;3.17;1.48;;;23.40;71.40;;;;;;5064139;28;20121;-60
2023/06/14 09:35:25;;;;;;;3.42;1.60;;;23.50;71.40;;;;;;5049680;28;20507;-59
2023/06/14 09:37:51;;;;;;;6.80;1.50;;;23.60;71.40;;;;;;5062226;28;20087;-59
2023/06/14 09:40:23;;;;;;;5.47;1.80;;;23.80;70.90;;;;;;5060635;28;20040;-58
2023/06/14 09:42:49;;;;;;;4.25;1.65;;;23.80;70.70;;;;;;5052484;28;20040;-58
2023/06/14 09:45:21;;;;;;;3.60;1.67;;;23.90;70.90;;;;;;5070611;28;20133;-60
2023/06/14 09:47:49;;;;;;;4.03;1.50;;;23.90;70.80;;;;;;5069941;28;20048;-59
2023/06/14 09:50:15;;;;;;;3.47;1.42;;;23.80;70.10;;;;;;5070173;28;20112;-59
2023/06/14 09:52:44;;;;;;;3.80;1.52;;;23.90;70.30;;;;;;5072230;28;20128;-59
2023/06/14 09:55:14;;;;;;;2.50;1.20;;;24.00;69.90;;;;;;5064218;28;20419;-59
2023/06/14 09:57:43;;;;;;;3.97;1.60;;;24.00;69.70;;;;;;5071272;28;20476;-59
2023/06/14 10:00:13;;;;;;;4.80;1.40;;;24.10;70.50;;;;;;5062674;28;20060;-59
2023/06/14 10:02:42;;;;;;;8.75;1.55;;;24.20;69.40;;;;;;5053606;28;20087;-59
2023/06/14 10:05:10;;;;;;;3.20;1.35;;;24.30;69.20;;;;;;5056311;28;20033;-60
2023/06/14 10:07:43;;;;;;;5.53;1.58;;;24.30;68.60;;;;;;5072485;28;20045;-59
2023/06/14 10:10:09;;;;;;;4.20;1.50;;;24.40;68.10;;;;;;5072936;28;20044;-53
2023/06/14 10:12:35;;;;;;;5.05;1.70;;;24.40;67.90;;;;;;5065006;28;20032;-59
2023/06/14 10:15:02;;;;;;;3.03;1.30;;;24.50;68.00;;;;;;5063025;28;20109;-58
2023/06/14 10:17:40;;;;;;;3.05;1.40;;;24.50;68.20;;;;;;5058061;28;20047;-58
2023/06/14 10:20:41;;;;;;;6.20;1.30;;;24.50;68.10;;;;;;5059810;28;20480;-57
2023/06/14 10:23:11;;;;;;;6.00;1.40;;;24.60;67.70;;;;;;5061094;28;20045;-58
2023/06/14 10:25:37;;;;;;;3.03;1.10;;;24.60;67.80;;;;;;5058619;28;20095;-58
2023/06/14 10:28:17;;;;;;;3.75;1.60;;;24.70;68.00;;;;;;5063818;28;20431;-56
2023/06/14 10:31:05;;;;;;;6.38;1.60;;;24.80;67.00;;;;;;5059772;28;20116;-58
2023/06/14 10:33:32;;;;;;;2.80;1.08;;;24.80;67.10;;;;;;5062674;28;20041;-58
2023/06/14 10:36:20;;;;;;;5.10;1.30;;;24.80;66.90;;;;;;5062447;28;20178;-58
2023/06/14 10:38:46;;;;;;;3.58;1.20;;;24.90;66.20;;;;;;5065143;28;20468;-58
2023/06/14 10:41:12;;;;;;;4.75;1.10;;;24.90;66.80;;;;;;5068557;28;20044;-59
2023/06/14 10:43:37;;;;;;;2.58;1.10;;;24.90;66.70;;;;;;5065069;28;20041;-58
2023/06/14 10:46:17;;;;;;;3.97;1.00;;;25.00;66.80;;;;;;5060119;28;20412;-59
2023/06/14 10:48:44;;;;;;;2.65;1.33;;;25.10;66.40;;;;;;5052821;28;20056;-60
2023/06/14 10:51:21;;;;;;;7.18;1.40;;;25.20;66.50;;;;;;5053101;28;20216;-60
2023/06/14 10:53:51;;;;;;;2.92;1.27;;;25.20;66.00;;;;;;5056812;28;20051;-59
2023/06/14 10:56:28;;;;;;;3.03;1.25;;;25.20;66.50;;;;;;5038338;28;20044;-60
2023/06/14 10:58:56;;;;;;;3.15;0.95;;;25.40;65.90;;;;;;5058714;28;20074;-58
2023/06/14 11:01:36;;;;;;;3.97;1.42;;;25.40;65.60;;;;;;5056603;28;20450;-57
2023/06/14 11:04:10;;;;;;;6.30;1.27;;;25.60;64.60;;;;;;5057522;28;20058;-58
2023/06/14 11:06:49;;;;;;;4.45;1.10;;;25.60;64.30;;;;;;5056621;28;20056;-59
2023/06/14 11:09:43;;;;;;;2.47;1.17;;;25.60;64.50;;;;;;5057018;28;20043;-59
2023/06/14 11:12:11;;;;;;;6.00;1.40;;;25.60;63.70;;;;;;5056460;28;20143;-59
2023/06/14 11:14:38;;;;;;;3.85;0.90;;;25.60;64.50;;;;;;5056356;28;20099;-59
2023/06/14 11:17:04;;;;;;;5.80;1.20;;;25.80;65.60;;;;;;5057143;28;20041;-60
2023/06/14 11:19:31;;;;;;;3.50;1.17;;;26.00;64.10;;;;;;5055255;28;20194;-59
2023/06/14 11:21:58;;;;;;;3.38;1.38;;;26.00;64.00;;;;;;5056163;28;20044;-61
2023/06/14 11:24:24;;;;;;;4.38;1.10;;;26.10;64.10;;;;;;5056107;28;20028;-58
2023/06/14 11:26:50;;;;;;;6.40;1.27;;;26.20;64.20;;;;;;5057579;28;20040;-59
2023/06/14 11:29:17;;;;;;;5.40;1.15;;;26.20;63.00;;;;;;5056864;28;20077;-60
2023/06/14 11:31:46;;;;;;;3.33;1.10;;;26.20;62.80;;;;;;5057010;28;20052;-60
2023/06/14 11:34:12;;;;;;;3.63;1.20;;;26.20;62.70;;;;;;5056681;28;20045;-59
2023/06/14 11:36:38;;;;;;;3.60;1.15;;;26.20;63.00;;;;;;5057148;28;20028;-59
2023/06/14 11:39:09;;;;;;;8.77;1.55;;;26.30;63.80;;;;;;5062454;28;20040;-58
2023/06/14 11:41:52;;;;;;;3.35;1.30;;;26.40;63.10;;;;;;5060331;28;20069;-59
2023/06/14 11:44:18;;;;;;;3.72;1.30;;;26.50;61.60;;;;;;5069913;28;20041;-58
2023/06/14 11:46:44;;;;;;;4.40;1.25;;;26.40;62.00;;;;;;5070424;28;20440;-60
2023/06/14 11:49:10;;;;;;;4.55;1.13;;;26.50;62.40;;;;;;5069652;28;20106;-61
2023/06/14 11:51:36;;;;;;;5.70;1.20;;;26.60;62.90;;;;;;5071527;28;20487;-59
2023/06/14 11:54:03;;;;;;;8.38;1.38;;;26.70;62.10;;;;;;5071166;28;20044;-59
2023/06/14 11:56:33;;;;;;;7.45;1.40;;;26.80;62.10;;;;;;5071740;28;20075;-60
2023/06/14 11:58:59;;;;;;;6.95;1.50;;;27.00;61.40;;;;;;5072174;28;20492;-59
2023/06/14 12:01:25;;;;;;;3.50;1.27;;;27.10;62.00;;;;;;5067099;28;20044;-60
2023/06/14 12:03:53;;;;;;;4.22;1.27;;;27.20;62.20;;;;;;5067207;28;20565;-59
2023/06/14 12:06:32;;;;;;;2.92;1.30;;;27.30;62.50;;;;;;5071717;28;20044;-60
2023/06/14 12:08:58;;;;;;;2.90;1.30;;;27.40;61.40;;;;;;5071374;28;20036;-59
2023/06/14 12:11:28;;;;;;;4.22;1.10;;;27.30;61.40;;;;;;5053614;28;20074;-61
2023/06/14 12:13:53;;;;;;;3.47;1.52;;;27.30;61.40;;;;;;5052184;28;20036;-59
2023/06/14 12:16:19;;;;;;;4.63;1.33;;;27.30;61.60;;;;;;5070485;28;20506;-60
2023/06/14 12:18:45;;;;;;;5.07;1.20;;;27.40;62.50;;;;;;5071761;28;20054;-59
2023/06/14 12:21:11;;;;;;;6.07;1.73;;;27.50;61.90;;;;;;5071636;28;20063;-58
2023/06/14 12:23:44;;;;;;;5.68;1.30;;;27.60;61.50;;;;;;5071259;28;20044;-59
2023/06/14 12:26:13;;;;;;;3.38;1.20;;;27.60;61.20;;;;;;5071657;28;20063;-60
2023/06/14 12:28:41;;;;;;;3.80;1.35;;;27.80;62.20;;;;;;5053159;28;20094;-60
2023/06/14 12:31:07;;;;;;;4.20;1.33;;;27.90;61.80;;;;;;5071299;28;20161;-60
2023/06/14 12:33:32;;;;;;;5.32;1.40;;;27.90;61.70;;;;;;5052825;28;20076;-59
2023/06/14 12:36:06;;;;;;;4.78;1.27;;;27.90;62.10;;;;;;5129591;27;20440;-59
2023/06/14 12:38:33;;;;;;;4.53;1.17;;;28.00;62.00;;;;;;5143530;27;20534;-60
2023/06/14 12:40:59;;;;;;;5.07;1.42;;;28.00;62.20;;;;;;5132542;27;20073;-58
2023/06/14 12:43:24;;;;;;;2.78;1.20;;;28.10;61.80;;;;;;5149669;27;20058;-58
2023/06/14 12:45:50;;;;;;;4.18;1.45;;;28.30;61.70;;;;;;5139313;27;20089;-58
2023/06/14 12:48:16;;;;;;;3.00;1.15;;;28.50;61.50;;;;;;5136004;27;20045;-59